Flight Number: AVA4111 Duration: 1:00
Departure: Melbourne Intl (YMML) at 03:30 Distance: 381.485 Nm
Arrival: Sydney Intl Airport (YSSY) at 04:30 Equipment: B737

Weather Information
Melbourne Airport, Australia (YMML) 37-40S 144-50E 141M Apr 07, 2020 - 11:30 AM EDT / 2020.04.07 1530 UTC
Wind: from the SSW (200 degrees) at 3 MPH (3 KT):0
Visibility: greater than 7 mile(s):0
Sky conditions: mostly cloudy Temperature: 51 F (11 C) Dew Point: 51 F (11 C) Relative Humidity: 100% Pressure (altimeter): 30.21 in. Hg (1023 hPa)
ob: YMML 071530Z 20003KT 9999 FEW010 BKN130 11/11 Q1023 cycle: 15
Sunrise: 20:43 Sunset: 08:01 (UTC)

Sydney Airport, Australia (YSSY) 33-57S 151-11E 3M Apr 07, 2020 - 11:30 AM EDT / 2020.04.07 1530 UTC
Wind: from the SSE (150 degrees) at 7 MPH (6 KT):0
Visibility: greater than 7 mile(s):0
Sky conditions: mostly cloudy Weather: showers in the vicinity Temperature: 60 F (16 C) Dew Point: 59 F (15 C) Relative Humidity: 93% Pressure (altimeter): 30.12 in. Hg (1020 hPa)
ob: YSSY 071530Z 15006KT 9999 VCSH SCT028 BKN038 BKN080 16/15 Q1020 NOSIG cycle: 15
Sunrise: 20:15 Sunset: 07:39 (UTC)

TAF:2020/04/07 12:33 TAF YSSY 071105Z 0712/0818 13008KT 9999 SCT025 FM071400 25005KT 9999 SCT025 FM072300 16013KT 9999 -SHRA FEW015 SCT025 FM081200 19010KT 9999 -SHRA SCT025 INTER 0801/0812 4000 SHRA BKN015

Previous Pireps for this route
Date Aircraft Flight time Fuel used Landing rate On time
2020-02-27B7771.1820753-24Charter
(pireps marked green are flown by you)

Route map